createdAt,value
2024-01-25T00:06:49.428Z,8.40
2024-01-25T00:14:52.760Z,8.29
2024-01-25T00:18:10.590Z,8.11
2024-01-25T00:21:38.252Z,8.42
2024-01-25T00:25:18.617Z,8.50
2024-01-25T00:28:55.487Z,8.18
2024-01-25T00:32:24.496Z,8.16
2024-01-25T00:35:53.596Z,8.19
2024-01-25T00:38:58.112Z,8.18
2024-01-25T00:42:27.502Z,8.29
2024-01-25T00:46:22.479Z,8.12
2024-01-25T00:50:15.413Z,7.95
2024-01-25T00:53:47.569Z,8.17
2024-01-25T00:57:01.182Z,8.01
2024-01-25T01:00:12.290Z,8.19
2024-01-25T01:03:32.408Z,7.93
2024-01-25T01:06:36.290Z,8.20
2024-01-25T01:09:43.110Z,8.27
2024-01-25T01:13:18.506Z,8.37
2024-01-25T01:17:01.267Z,8.55
2024-01-25T01:20:19.587Z,8.24
2024-01-25T01:23:39.578Z,8.43
2024-01-25T01:26:53.218Z,8.65
2024-01-25T01:30:02.705Z,8.71
2024-01-25T01:33:57.580Z,8.37
2024-01-25T01:37:54.413Z,8.43
2024-01-25T01:41:22.521Z,8.26
2024-01-25T01:44:32.214Z,8.27
2024-01-25T01:47:45.855Z,8.26
2024-01-25T01:51:23.239Z,8.17
2024-01-25T01:54:52.301Z,8.50
2024-01-25T01:58:05.175Z,8.39
2024-01-25T02:01:49.421Z,8.32
2024-01-25T02:05:18.107Z,8.15
2024-01-25T02:09:13.885Z,8.48
2024-01-25T02:16:16.958Z,8.32
2024-01-25T02:20:04.590Z,8.53
2024-01-25T02:23:23.382Z,8.57
2024-01-25T02:26:33.605Z,8.44
2024-01-25T02:29:44.038Z,8.64
2024-01-25T02:32:50.928Z,8.81
2024-01-25T02:36:02.300Z,8.65
2024-01-25T02:39:13.231Z,8.54
2024-01-25T02:42:19.979Z,8.63
2024-01-25T02:45:26.307Z,8.79
2024-01-25T02:48:32.805Z,8.55
2024-01-25T02:51:39.824Z,8.28
2024-01-25T02:54:44.375Z,8.65
2024-01-25T02:57:49.566Z,8.42
2024-01-25T03:00:56.896Z,8.48
2024-01-25T03:04:05.220Z,8.68
2024-01-25T03:07:09.539Z,8.81
2024-01-25T03:10:16.049Z,8.52
2024-01-25T03:13:28.473Z,8.47
2024-01-25T03:16:35.372Z,8.71
2024-01-25T03:19:46.961Z,8.61
2024-01-25T03:22:50.718Z,8.76
2024-01-25T03:25:54.187Z,8.53
2024-01-25T03:28:57.272Z,8.49
2024-01-25T03:32:02.616Z,8.83
2024-01-25T03:35:05.830Z,8.84
2024-01-25T03:38:09.764Z,8.74
2024-01-25T03:41:15.838Z,8.43
2024-01-25T03:44:20.902Z,8.67
2024-01-25T03:47:25.448Z,8.74
2024-01-25T03:50:30.623Z,8.54
2024-01-25T03:53:33.647Z,8.48
2024-01-25T03:56:37.838Z,8.54
2024-01-25T03:59:45.337Z,8.62
2024-01-25T04:02:47.966Z,8.49
2024-01-25T04:06:00.189Z,8.18
2024-01-25T04:09:03.029Z,8.45
2024-01-25T04:12:08.465Z,8.74
2024-01-25T04:15:11.356Z,8.55
2024-01-25T04:18:23.090Z,8.47
2024-01-25T04:21:26.077Z,8.65
2024-01-25T04:24:29.713Z,8.61
2024-01-25T04:27:36.656Z,8.53
2024-01-25T04:30:39.362Z,8.80
2024-01-25T04:33:52.639Z,8.46
2024-01-25T04:36:56.596Z,8.50
2024-01-25T04:40:04.030Z,8.65
2024-01-25T04:43:10.167Z,8.57
2024-01-25T04:46:12.505Z,8.43
2024-01-25T04:49:18.480Z,8.50
2024-01-25T04:52:23.745Z,8.43
2024-01-25T04:55:27.461Z,8.57
2024-01-25T04:58:31.712Z,8.50
2024-01-25T05:01:35.819Z,8.34
2024-01-25T05:04:38.248Z,8.35
2024-01-25T05:07:42.925Z,8.42
2024-01-25T05:10:46.564Z,8.46
2024-01-25T05:13:48.825Z,8.39
2024-01-25T05:16:54.052Z,8.47
2024-01-25T05:19:56.989Z,8.36
2024-01-25T05:23:03.265Z,8.32
2024-01-25T05:26:08.548Z,8.46
2024-01-25T05:29:11.676Z,8.44
2024-01-25T05:32:23.024Z,8.48
2024-01-25T05:35:26.120Z,8.55
2024-01-25T05:38:28.879Z,8.20
2024-01-25T05:41:37.371Z,8.42
2024-01-25T05:44:40.548Z,8.40
2024-01-25T05:47:43.016Z,8.40
2024-01-25T05:50:46.451Z,8.45
2024-01-25T05:53:49.312Z,8.24
2024-01-25T05:56:52.807Z,8.22
2024-01-25T05:59:55.207Z,8.55
2024-01-25T06:02:58.975Z,8.36
2024-01-25T06:06:01.756Z,8.20
2024-01-25T06:09:11.974Z,8.42
2024-01-25T06:12:17.302Z,8.57
2024-01-25T06:15:22.754Z,8.35
2024-01-25T06:18:33.004Z,8.37
2024-01-25T06:21:39.069Z,8.52
2024-01-25T06:24:43.400Z,8.42
2024-01-25T06:27:45.975Z,8.16
2024-01-25T06:30:48.452Z,8.20
2024-01-25T06:33:54.685Z,8.43
2024-01-25T06:36:57.588Z,8.24
2024-01-25T06:40:15.576Z,8.18
2024-01-25T06:43:18.164Z,8.16
2024-01-25T06:46:28.163Z,8.18
2024-01-25T06:49:34.288Z,8.56
2024-01-25T06:52:44.679Z,8.45
2024-01-25T06:56:01.726Z,8.40
2024-01-25T06:59:23.419Z,8.52
2024-01-25T07:02:31.474Z,8.40
2024-01-25T07:06:08.005Z,8.39
2024-01-25T07:18:51.900Z,8.26
2024-01-25T07:22:22.886Z,8.37
2024-01-25T07:26:17.838Z,8.55
2024-01-25T07:29:23.368Z,8.46
2024-01-25T07:32:26.967Z,8.52
2024-01-25T07:35:30.587Z,8.57
2024-01-25T07:38:34.997Z,8.68
2024-01-25T07:41:38.821Z,8.59
2024-01-25T07:44:41.826Z,8.80
2024-01-25T07:47:50.692Z,8.66
2024-01-25T07:50:57.161Z,8.55
2024-01-25T07:53:59.689Z,8.65
2024-01-25T07:57:12.892Z,8.70
2024-01-25T08:00:31.367Z,8.70
2024-01-25T08:03:59.932Z,8.78
2024-01-25T08:07:18.526Z,8.85
2024-01-25T08:10:21.602Z,8.74
2024-01-25T08:17:06.815Z,8.96
2024-01-25T08:20:20.336Z,9.05
2024-01-25T08:23:44.940Z,8.95
2024-01-25T08:26:52.178Z,9.14
2024-01-25T08:30:21.350Z,9.18
2024-01-25T08:33:34.841Z,9.15
2024-01-25T08:44:13.769Z,9.14
2024-01-25T08:57:21.402Z,9.47
2024-01-25T09:29:34.272Z,9.33
2024-01-25T09:32:58.687Z,9.45
2024-01-25T09:36:11.588Z,9.47
2024-01-25T09:40:00.761Z,9.58
2024-01-25T09:43:39.349Z,9.31
2024-01-25T09:47:10.747Z,9.32
2024-01-25T09:51:10.030Z,9.49
2024-01-25T09:58:21.408Z,9.43
2024-01-25T10:06:32.763Z,9.18
2024-01-25T10:10:07.732Z,9.42
2024-01-25T10:14:03.037Z,9.48
2024-01-25T10:45:41.165Z,9.76
2024-01-25T10:48:48.928Z,9.79
2024-01-25T10:55:19.575Z,9.54
2024-01-25T11:04:21.578Z,9.80
2024-01-25T11:52:21.287Z,9.92
2024-01-25T11:55:58.362Z,9.85
2024-01-25T12:25:01.536Z,9.93
2024-01-25T12:28:52.274Z,9.82
2024-01-25T12:33:29.110Z,9.98
2024-01-25T12:37:40.057Z,10.18
2024-01-25T12:41:18.145Z,10.16
2024-01-25T12:45:35.824Z,10.06
2024-01-25T13:12:06.229Z,9.87
2024-01-25T13:16:17.854Z,9.94
2024-01-25T13:32:56.034Z,9.72
2024-01-25T13:36:10.143Z,9.67
2024-01-25T13:39:16.321Z,9.79
2024-01-25T13:42:22.735Z,9.67
2024-01-25T13:45:33.819Z,9.68
2024-01-25T13:48:53.952Z,9.68
2024-01-25T13:51:57.574Z,9.70
2024-01-25T13:55:05.327Z,9.61
2024-01-25T13:58:13.821Z,9.55
2024-01-25T14:01:33.713Z,9.47
2024-01-25T14:04:42.397Z,9.45
2024-01-25T14:08:00.021Z,9.38
2024-01-25T14:11:12.995Z,9.33
2024-01-25T14:14:16.998Z,9.35
2024-01-25T14:17:20.772Z,9.37
2024-01-25T14:20:46.461Z,9.43
2024-01-25T14:23:54.284Z,9.41
2024-01-25T14:27:04.707Z,9.36
2024-01-25T14:30:11.783Z,9.31
2024-01-25T14:33:17.025Z,9.32
2024-01-25T14:36:29.311Z,9.29
2024-01-25T14:39:32.972Z,9.23
2024-01-25T14:42:41.269Z,9.20
2024-01-25T14:45:45.106Z,9.17
2024-01-25T14:48:57.102Z,9.17
2024-01-25T14:52:00.165Z,9.10
2024-01-25T14:55:06.630Z,9.04
2024-01-25T14:58:13.233Z,9.04
2024-01-25T15:01:19.657Z,8.91
2024-01-25T15:04:35.022Z,8.94
2024-01-25T15:07:38.521Z,9.00
2024-01-25T15:10:50.701Z,9.05
2024-01-25T15:13:53.378Z,8.98
2024-01-25T15:17:07.030Z,8.72
2024-01-25T15:20:12.444Z,8.99
2024-01-25T15:23:18.389Z,8.91
2024-01-25T15:26:21.334Z,9.04
2024-01-25T15:29:26.055Z,8.87
2024-01-25T15:32:35.584Z,8.71
2024-01-25T15:35:38.750Z,8.75
2024-01-25T15:38:45.395Z,8.74
2024-01-25T15:41:58.192Z,8.79
2024-01-25T15:45:02.277Z,8.70
2024-01-25T15:48:07.129Z,8.71
2024-01-25T15:51:15.868Z,8.65
2024-01-25T15:54:33.530Z,8.67
2024-01-25T15:57:43.027Z,8.56
2024-01-25T16:00:51.506Z,8.66
2024-01-25T16:03:56.129Z,8.57
2024-01-25T16:07:03.324Z,8.41
2024-01-25T16:10:17.210Z,8.60
2024-01-25T16:13:21.016Z,8.45
2024-01-25T16:21:06.991Z,8.36
2024-01-25T16:24:35.569Z,8.45
2024-01-25T16:27:39.342Z,8.39
2024-01-25T16:30:47.812Z,8.32
2024-01-25T16:33:59.827Z,8.27
2024-01-25T16:37:03.346Z,8.21
2024-01-25T16:40:10.278Z,8.31
2024-01-25T16:43:19.165Z,8.39
2024-01-25T16:46:34.233Z,8.31
2024-01-25T16:49:40.886Z,8.20
2024-01-25T16:52:56.843Z,8.23
2024-01-25T16:56:32.135Z,8.22
2024-01-25T16:59:39.925Z,8.22
2024-01-25T17:02:48.511Z,8.14
2024-01-25T17:06:03.344Z,8.21
2024-01-25T17:09:19.422Z,8.06
2024-01-25T17:12:23.098Z,8.05
2024-01-25T17:15:30.525Z,7.86
2024-01-25T17:18:37.847Z,8.12
2024-01-25T17:21:52.474Z,7.94
2024-01-25T17:24:57.490Z,8.03
2024-01-25T17:28:29.803Z,7.92
2024-01-25T17:31:46.064Z,7.96
2024-01-25T17:35:04.686Z,7.93
2024-01-25T17:38:15.896Z,7.89
2024-01-25T17:41:42.757Z,7.70
2024-01-25T17:44:47.903Z,7.91
2024-01-25T17:47:53.661Z,8.04
2024-01-25T17:50:59.980Z,7.97
2024-01-25T17:54:22.119Z,7.82
2024-01-25T17:57:36.371Z,7.84
2024-01-25T18:00:48.713Z,7.73
2024-01-25T18:03:57.949Z,7.68
2024-01-25T18:07:06.050Z,7.63
2024-01-25T18:10:13.202Z,7.52
2024-01-25T18:13:17.228Z,7.62
2024-01-25T18:16:20.430Z,7.56
2024-01-25T18:19:28.023Z,7.58
2024-01-25T18:22:32.141Z,7.27
2024-01-25T18:25:35.178Z,7.52
2024-01-25T18:28:39.566Z,7.37
2024-01-25T18:31:44.459Z,7.47
2024-01-25T18:34:50.247Z,7.26
2024-01-25T18:37:55.901Z,7.32
2024-01-25T18:41:00.981Z,7.30
2024-01-25T18:44:04.378Z,7.33
2024-01-25T18:47:09.095Z,7.26
2024-01-25T18:50:12.182Z,7.13
2024-01-25T18:53:24.535Z,7.19
2024-01-25T18:56:28.969Z,7.15
2024-01-25T18:59:32.426Z,7.19
2024-01-25T19:02:37.167Z,7.19
2024-01-25T19:05:45.059Z,7.12
2024-01-25T19:08:50.391Z,7.14
2024-01-25T19:11:53.833Z,7.02
2024-01-25T19:14:57.026Z,7.03
2024-01-25T19:18:01.072Z,7.01
2024-01-25T19:21:08.495Z,6.94
2024-01-25T19:24:15.695Z,6.93
2024-01-25T19:27:40.009Z,7.04
2024-01-25T19:30:48.744Z,7.00
2024-01-25T19:33:59.616Z,7.08
2024-01-25T19:37:08.779Z,6.97
2024-01-25T19:40:13.375Z,7.02
2024-01-25T19:43:19.530Z,7.07
2024-01-25T19:46:23.437Z,6.91
2024-01-25T19:49:32.698Z,6.89
2024-01-25T19:52:47.578Z,7.06
2024-01-25T19:55:52.401Z,6.97
2024-01-25T19:58:56.199Z,7.00
2024-01-25T20:02:01.328Z,7.06
2024-01-25T20:05:08.618Z,7.12
2024-01-25T20:08:17.192Z,7.23
2024-01-25T20:11:22.786Z,7.17
2024-01-25T20:14:26.004Z,7.15
2024-01-25T20:17:29.168Z,7.15
2024-01-25T20:20:42.864Z,7.05
2024-01-25T20:23:53.334Z,7.19
2024-01-25T20:26:59.991Z,7.24
2024-01-25T20:30:07.777Z,7.02
2024-01-25T20:33:13.185Z,7.14
2024-01-25T20:36:43.215Z,7.11
2024-01-25T20:39:50.605Z,7.11
2024-01-25T20:42:58.571Z,6.90
2024-01-25T20:46:08.210Z,7.00
2024-01-25T20:49:29.367Z,6.82
2024-01-25T20:52:41.860Z,6.82
2024-01-25T20:56:21.673Z,7.01
2024-01-25T20:59:26.904Z,7.09
2024-01-25T21:03:04.255Z,7.06
2024-01-25T21:06:22.432Z,6.98
2024-01-25T21:09:27.428Z,7.19
2024-01-25T21:12:35.579Z,7.05
2024-01-25T21:15:41.473Z,7.01
2024-01-25T21:18:45.867Z,7.08
2024-01-25T21:21:54.779Z,7.19
2024-01-25T21:25:05.467Z,7.10
2024-01-25T21:28:16.973Z,7.14
2024-01-25T21:31:21.899Z,7.05
2024-01-25T21:34:39.234Z,6.82
2024-01-25T21:37:56.471Z,7.04
2024-01-25T21:41:16.966Z,6.99
2024-01-25T21:44:21.964Z,6.68
2024-01-25T21:47:41.889Z,6.67
2024-01-25T21:50:59.365Z,6.81
2024-01-25T21:54:38.060Z,6.63
2024-01-25T21:58:52.857Z,6.59
2024-01-25T22:02:34.926Z,6.65
2024-01-25T22:06:16.420Z,6.53
2024-01-25T22:09:26.277Z,6.74
2024-01-25T22:12:35.222Z,6.68
2024-01-25T22:15:39.426Z,6.58
2024-01-25T22:18:43.983Z,6.62
2024-01-25T22:21:46.818Z,6.67
2024-01-25T22:24:56.372Z,6.58
2024-01-25T22:28:02.993Z,6.63
2024-01-25T22:31:09.730Z,6.50
2024-01-25T22:34:13.411Z,6.56
2024-01-25T22:37:18.011Z,6.41
2024-01-25T22:40:20.474Z,6.42
2024-01-25T22:43:23.858Z,6.44
2024-01-25T22:46:28.870Z,6.40
2024-01-25T22:49:31.440Z,6.36
2024-01-25T22:52:34.506Z,6.27
2024-01-25T22:55:41.713Z,6.35
2024-01-25T22:58:44.707Z,6.27
2024-01-25T23:01:48.516Z,6.18
2024-01-25T23:04:51.614Z,6.15
2024-01-25T23:07:56.652Z,6.20
2024-01-25T23:11:05.438Z,6.01
2024-01-25T23:14:07.693Z,6.08
2024-01-25T23:17:10.256Z,6.03
2024-01-25T23:20:13.341Z,5.89
2024-01-25T23:23:16.328Z,6.07
2024-01-25T23:26:19.355Z,6.03
2024-01-25T23:29:21.638Z,5.87
2024-01-25T23:32:24.474Z,5.99
2024-01-25T23:35:26.779Z,5.92
2024-01-25T23:38:28.872Z,5.89
2024-01-25T23:41:31.598Z,5.90
2024-01-25T23:44:33.991Z,5.92
2024-01-25T23:47:37.815Z,5.86
2024-01-25T23:50:40.379Z,5.83
2024-01-25T23:53:43.513Z,5.76
2024-01-25T23:56:45.670Z,5.71
2024-01-25T23:59:47.832Z,5.75
